Date,TemperatureHighF,TemperatureAvgF,TemperatureLowF,DewpointHighF,DewpointAvgF,DewpointLowF,HumidityHigh,HumidityAvg,HumidityLow,PressureMaxIn,PressureMinIn,WindSpeedMaxMPH,WindSpeedAvgMPH,GustSpeedMaxMPH,PrecipitationSumIn
2013-2-1,31,25,18,-100,-100,-100,0,0,100,0.00,40.00,0,-999,0,0.01
2013-2-2,26,20,12,-100,-100,-100,0,0,100,0.00,40.00,0,-999,0,0.00
2013-2-3,27,23,15,-100,-100,-100,0,0,100,0.00,40.00,0,-999,0,0.00
2013-2-4,29,22,18,-100,-100,-100,0,0,100,0.00,40.00,0,-999,0,0.00
2013-2-5,29,18,6,-100,-100,-100,0,0,100,0.00,40.00,0,-999,0,0.00
2013-2-6,36,26,19,-100,-100,-100,0,0,100,0.00,40.00,0,-999,0,0.00
2013-2-7,24,18,12,-100,-100,-100,0,0,100,0.00,40.00,0,-999,0,0.00
2013-2-8,22,18,15,-100,-100,-100,0,0,100,0.00,40.00,0,-999,0,0.00
2013-2-9,18,16,11,-100,-100,-100,0,0,100,0.00,40.00,0,-999,0,0.00
2013-2-10,30,16,-1,-100,-100,-100,0,0,100,0.00,40.00,0,-999,0,0.04
2013-2-11,28,19,6,-100,-100,-100,0,0,100,0.00,40.00,0,-999,0,0.01
2013-2-12,43,34,26,-100,-100,-100,0,0,100,0.00,40.00,0,-999,0,0.25
2013-2-13,40,31,22,-100,-100,-100,0,0,100,0.00,40.00,0,-999,0,0.11
2013-2-14,40,29,22,-100,-100,-100,0,0,100,0.00,40.00,0,-999,0,0.09
2013-2-15,50,31,18,-100,-100,-100,0,0,100,0.00,40.00,0,-999,0,0.10
2013-2-16,38,32,27,-100,-100,-100,0,0,100,0.00,40.00,0,-999,0,0.02
2013-2-17,27,20,14,-100,-100,-100,0,0,100,0.00,40.00,0,-999,0,0.01
2013-2-18,29,19,12,-100,-100,-100,0,0,100,0.00,40.00,0,-999,0,0.00
2013-2-19,41,28,11,-100,-100,-100,0,0,100,0.00,40.00,0,-999,0,0.10
2013-2-20,34,31,24,-100,-100,-100,0,0,100,0.00,40.00,0,-999,0,0.12
2013-2-21,27,23,19,-100,-100,-100,0,0,100,0.00,40.00,0,-999,0,0.00
2013-2-22,39,26,11,-100,-100,-100,0,0,100,0.00,40.00,0,-999,0,0.00
2013-2-23,35,32,27,-100,-100,-100,0,0,100,0.00,40.00,0,-999,0,0.01
2013-2-24,34,32,30,-100,-100,-100,0,0,100,0.00,40.00,0,-999,0,0.02
2013-2-25,36,31,26,-100,-100,-100,0,0,100,0.00,40.00,0,-999,0,0.14
2013-2-26,40,34,30,-100,-100,-100,0,0,100,0.00,40.00,0,-999,0,0.41
2013-2-27,38,34,32,-100,-100,-100,0,0,100,0.00,40.00,0,-999,0,0.68
2013-2-28,42,35,31,-100,-100,-100,0,0,100,0.00,40.00,0,-999,0,0.25